KF5JLK Weather Reports


Display with metric or nautical units.
time (UTC)temp
F
wind
direction
speed
MPH
gust
MPH
rain 1hr
in
rain 24hr
in
rain mn
in
humidity
%
barometer
mb
20210922030050 79 1 2.0 0.0 0.00 0.00 0.00 45 1022.1
20210922024626 80 1 2.0 0.0 0.00 0.00 0.00 44 1022.0
20210922021512 81 24 3.0 0.0 0.00 0.00 0.00 43 1021.5
20210922020124 81 25 2.0 0.0 0.00 0.00 0.00 43 1021.5
20210922014638 82 8 5.0 0.0 0.00 0.00 0.00 45 1021.2
20210922011523 82 23 5.0 0.0 0.00 0.00 0.00 47 1020.2
20210922010119 82 333 4.0 0.0 0.00 0.00 0.00 49 1020.2
20210922003104 83 1 5.0 0.0 0.00 0.00 0.00 55 1019.0
20210922001642 84 0 5.0 0.0 0.00 0.00 0.00 55 1019.0
20210921234511 85 33 3.0 0.0 0.00 0.00 0.00 62 1018.3
20210921233133 86 30 3.0 0.0 0.00 0.00 0.00 62 1018.3
20210921231639 86 44 3.0 0.0 0.00 0.00 0.00 63 1018.1
20210921224507 89 14 2.0 0.0 0.00 0.00 0.00 58 1017.7
20210921223047 88 356 4.0 0.0 0.00 0.00 0.00 58 1017.7
20210921221636 87 352 4.0 0.0 0.00 0.00 0.00 62 1017.6
20210921213024 88 0 1.0 0.0 0.00 0.00 0.00 66 1017.4
20210921211537 87 359 1.0 0.0 0.00 0.00 0.00 67 1017.5
20210921210032 87 353 2.0 0.0 0.00 0.00 0.00 65 1017.3
20210921204605 86 359 0.0 0.0 0.00 0.00 0.00 64 1017.7
20210921203025 84 359 0.0 0.0 0.00 0.00 0.00 65 1017.8
20210921201523 85 359 5.0 0.0 0.00 0.00 0.00 66 1017.7
20210921200023 89 356 2.0 0.0 0.00 0.00 0.00 59 1017.7
20210921194517 90 357 1.0 0.0 0.00 0.00 0.00 63 1017.9
20210921193015 90 0 0.0 0.0 0.00 0.00 0.00 64 1018.1
20210921191509 89 0 0.0 0.0 0.00 0.00 0.00 65 1018.1
20210921190006 88 0 0.0 0.0 0.00 0.00 0.00 67 1018.2
20210921184524 88 0 0.0 0.0 0.00 0.00 0.00 67 1018.4
20210921183006 87 0 0.0 0.0 0.00 0.00 0.00 68 1018.5
20210921180022 87 33 1.0 0.0 0.00 0.00 0.00 69 1018.8
20210921174614 87 342 0.0 0.0 0.00 0.00 0.00 68 1018.8
20210921170036 88 257 1.0 0.0 0.00 0.00 0.00 68 1018.4
20210921161600 87 217 2.0 0.0 0.00 0.00 0.00 70 1018.2
20210921160129 86 224 1.0 0.0 0.00 0.00 0.00 72 1018.2
20210921153043 83 189 1.0 0.0 0.00 0.00 0.00 79 1018.0
20210921144534 80 229 1.0 0.0 0.00 0.00 0.00 85 1017.7
20210921143046 80 223 1.0 0.0 0.00 0.00 0.00 85 1017.7
20210921140008 79 195 2.0 0.0 0.00 0.00 0.00 84 1016.6
20210921134628 79 208 3.0 0.0 0.00 0.00 0.00 85 1016.6
20210921130020 77 179 3.0 0.0 0.00 0.00 0.00 92 1015.6
20210921124600 77 200 2.0 0.0 0.00 0.00 0.00 92 1015.6
20210921123006 77 205 1.0 0.0 0.00 0.00 0.00 92 1015.1
20210921120024 77 205 1.0 0.0 0.00 0.00 0.00 92 1014.7
20210921114552 77 201 1.0 0.0 0.00 0.00 0.00 92 1014.7
20210921113117 77 201 1.0 0.0 0.00 0.00 0.00 91 1014.4
20210921111501 77 200 0.0 0.0 0.00 0.00 0.00 91 1013.9
20210921110105 78 200 0.0 0.0 0.00 0.00 0.00 91 1013.9
20210921104712 78 200 0.0 0.0 0.00 0.00 0.00 90 1013.8
20210921101506 78 200 1.0 0.0 0.00 0.00 0.00 89 1013.2
20210921100034 78 201 0.0 0.0 0.00 0.00 0.00 88 1013.2
20210921091525 79 200 2.0 0.0 0.00 0.00 0.00 86 1012.9
20210921090107 79 198 1.0 0.0 0.00 0.00 0.00 86 1012.9
20210921081509 79 167 3.0 0.0 0.00 0.00 0.00 87 1012.8
20210921080108 78 210 1.0 0.0 0.00 0.00 0.00 87 1012.8
20210921073020 78 193 2.0 0.0 0.00 0.00 0.00 87 1012.8
20210921071710 78 179 3.0 0.0 0.00 0.00 0.00 88 1012.8
20210921070059 78 203 2.0 0.0 0.00 0.00 0.00 87 1012.8
20210921064623 79 192 3.0 0.0 0.00 0.00 0.00 87 1012.8
20210921061515 79 177 2.0 0.0 0.00 0.00 0.00 85 1012.7
20210921060041 80 193 0.0 0.0 0.00 0.00 0.00 83 1012.7
20210921054619 80 206 1.0 0.0 0.00 0.00 0.00 82 1012.6
20210921051557 81 210 2.0 0.0 0.00 0.00 0.00 78 1012.5
20210921050134 81 207 2.0 0.0 0.00 0.00 0.00 76 1012.6
20210921041554 83 130 2.0 0.0 0.00 0.00 0.00 69 1012.3
20210921040147 84 198 4.0 0.0 0.00 0.00 0.00 67 1012.3
20210921031554 86 190 2.0 0.0 0.00 0.00 0.00 60 1011.6